sensor_id;sensor_type;location;lat;lon;timestamp;P1;durP1;ratioP1;P2;durP2;ratioP2
60352;SDS011;46196;52.970;6.954;2022-11-20T00:01:47;16.23;;;10.88;;
60352;SDS011;46196;52.970;6.954;2022-11-20T00:04:13;16.08;;;10.98;;
60352;SDS011;46196;52.970;6.954;2022-11-20T00:06:39;15.57;;;10.18;;
60352;SDS011;46196;52.970;6.954;2022-11-20T00:09:05;18.63;;;11.32;;
60352;SDS011;46196;52.970;6.954;2022-11-20T00:11:31;15.88;;;10.43;;
60352;SDS011;46196;52.970;6.954;2022-11-20T00:13:59;18.42;;;11.32;;
60352;SDS011;46196;52.970;6.954;2022-11-20T00:16:26;16.80;;;10.73;;
60352;SDS011;46196;52.970;6.954;2022-11-20T00:18:53;16.30;;;10.98;;
60352;SDS011;46196;52.970;6.954;2022-11-20T00:21:23;15.00;;;9.88;;
60352;SDS011;46196;52.970;6.954;2022-11-20T00:23:50;16.08;;;10.35;;
60352;SDS011;46196;52.970;6.954;2022-11-20T00:26:18;16.38;;;11.02;;
60352;SDS011;46196;52.970;6.954;2022-11-20T00:28:48;15.00;;;10.80;;
60352;SDS011;46196;52.970;6.954;2022-11-20T00:31:16;13.90;;;10.40;;
60352;SDS011;46196;52.970;6.954;2022-11-20T00:33:42;16.20;;;10.20;;
60352;SDS011;46196;52.970;6.954;2022-11-20T00:36:13;18.58;;;11.13;;
60352;SDS011;46196;52.970;6.954;2022-11-20T00:38:43;15.65;;;10.55;;
60352;SDS011;46196;52.970;6.954;2022-11-20T00:41:10;15.05;;;9.77;;
60352;SDS011;46196;52.970;6.954;2022-11-20T00:43:37;16.15;;;10.88;;
60352;SDS011;46196;52.970;6.954;2022-11-20T00:46:05;15.05;;;10.38;;
60352;SDS011;46196;52.970;6.954;2022-11-20T00:48:32;16.42;;;10.32;;
60352;SDS011;46196;52.970;6.954;2022-11-20T00:50:58;15.25;;;10.73;;
60352;SDS011;46196;52.970;6.954;2022-11-20T00:53:24;14.25;;;9.18;;
60352;SDS011;46196;52.970;6.954;2022-11-20T00:55:54;14.77;;;10.02;;
60352;SDS011;46196;52.970;6.954;2022-11-20T01:00:45;14.65;;;9.65;;
60352;SDS011;46196;52.970;6.954;2022-11-20T01:03:11;12.35;;;9.25;;
60352;SDS011;46196;52.970;6.954;2022-11-20T01:05:37;14.35;;;9.30;;
60352;SDS011;46196;52.970;6.954;2022-11-20T01:08:02;13.80;;;9.63;;
60352;SDS011;46196;52.970;6.954;2022-11-20T01:10:28;13.90;;;9.18;;
60352;SDS011;46196;52.970;6.954;2022-11-20T01:12:54;13.23;;;9.43;;
60352;SDS011;46196;52.970;6.954;2022-11-20T01:15:38;15.50;;;9.18;;
60352;SDS011;46196;52.970;6.954;2022-11-20T01:18:04;15.88;;;10.40;;
60352;SDS011;46196;52.970;6.954;2022-11-20T01:20:33;14.05;;;9.77;;
60352;SDS011;46196;52.970;6.954;2022-11-20T01:23:02;12.60;;;9.10;;
60352;SDS011;46196;52.970;6.954;2022-11-20T01:25:29;13.93;;;9.05;;
60352;SDS011;46196;52.970;6.954;2022-11-20T01:27:55;15.98;;;9.10;;
60352;SDS011;46196;52.970;6.954;2022-11-20T01:30:21;13.18;;;9.50;;
60352;SDS011;46196;52.970;6.954;2022-11-20T01:32:46;13.00;;;9.18;;
60352;SDS011;46196;52.970;6.954;2022-11-20T01:35:12;15.50;;;8.88;;
60352;SDS011;46196;52.970;6.954;2022-11-20T01:37:38;12.68;;;8.50;;
60352;SDS011;46196;52.970;6.954;2022-11-20T01:40:04;14.98;;;8.98;;
60352;SDS011;46196;52.970;6.954;2022-11-20T01:42:30;14.23;;;9.32;;
60352;SDS011;46196;52.970;6.954;2022-11-20T01:48:22;12.20;;;8.23;;
60352;SDS011;46196;52.970;6.954;2022-11-20T01:50:50;12.80;;;8.43;;
60352;SDS011;46196;52.970;6.954;2022-11-20T01:53:18;13.27;;;8.55;;
60352;SDS011;46196;52.970;6.954;2022-11-20T01:55:50;14.57;;;8.68;;
60352;SDS011;46196;52.970;6.954;2022-11-20T01:58:19;12.15;;;8.88;;
60352;SDS011;46196;52.970;6.954;2022-11-20T02:00:48;14.00;;;8.95;;
60352;SDS011;46196;52.970;6.954;2022-11-20T02:03:15;13.32;;;8.25;;
60352;SDS011;46196;52.970;6.954;2022-11-20T02:08:41;16.90;;;9.52;;
60352;SDS011;46196;52.970;6.954;2022-11-20T02:11:07;15.88;;;10.00;;
60352;SDS011;46196;52.970;6.954;2022-11-20T02:13:33;12.90;;;9.32;;
60352;SDS011;46196;52.970;6.954;2022-11-20T02:16:09;13.90;;;8.75;;
60352;SDS011;46196;52.970;6.954;2022-11-20T02:18:45;14.00;;;9.02;;
60352;SDS011;46196;52.970;6.954;2022-11-20T02:21:17;12.40;;;8.68;;
60352;SDS011;46196;52.970;6.954;2022-11-20T02:24:13;12.90;;;9.15;;
60352;SDS011;46196;52.970;6.954;2022-11-20T02:26:45;13.77;;;9.35;;
60352;SDS011;46196;52.970;6.954;2022-11-20T02:29:15;10.80;;;7.70;;
60352;SDS011;46196;52.970;6.954;2022-11-20T02:31:44;13.80;;;8.65;;
60352;SDS011;46196;52.970;6.954;2022-11-20T02:34:10;13.30;;;8.52;;
60352;SDS011;46196;52.970;6.954;2022-11-20T02:36:36;12.25;;;8.88;;
60352;SDS011;46196;52.970;6.954;2022-11-20T02:39:04;14.73;;;9.40;;
60352;SDS011;46196;52.970;6.954;2022-11-20T02:41:32;7.65;;;5.72;;
60352;SDS011;46196;52.970;6.954;2022-11-20T02:43:58;10.80;;;7.53;;
60352;SDS011;46196;52.970;6.954;2022-11-20T02:46:24;12.35;;;8.88;;
60352;SDS011;46196;52.970;6.954;2022-11-20T02:48:50;12.85;;;9.05;;
60352;SDS011;46196;52.970;6.954;2022-11-20T02:51:15;11.10;;;8.38;;
60352;SDS011;46196;52.970;6.954;2022-11-20T02:53:41;13.93;;;9.07;;
60352;SDS011;46196;52.970;6.954;2022-11-20T02:56:07;13.52;;;8.30;;
60352;SDS011;46196;52.970;6.954;2022-11-20T02:58:33;12.65;;;8.63;;
60352;SDS011;46196;52.970;6.954;2022-11-20T03:00:58;13.00;;;8.15;;
60352;SDS011;46196;52.970;6.954;2022-11-20T03:03:24;10.27;;;7.13;;
60352;SDS011;46196;52.970;6.954;2022-11-20T03:05:50;9.80;;;6.80;;
60352;SDS011;46196;52.970;6.954;2022-11-20T03:08:16;12.77;;;7.60;;
60352;SDS011;46196;52.970;6.954;2022-11-20T03:10:41;11.25;;;7.40;;
60352;SDS011;46196;52.970;6.954;2022-11-20T03:13:07;11.70;;;8.48;;
60352;SDS011;46196;52.970;6.954;2022-11-20T03:15:33;12.38;;;8.27;;
60352;SDS011;46196;52.970;6.954;2022-11-20T03:18:00;12.50;;;8.30;;
60352;SDS011;46196;52.970;6.954;2022-11-20T03:20:26;13.27;;;8.25;;
60352;SDS011;46196;52.970;6.954;2022-11-20T03:22:53;13.27;;;9.05;;
60352;SDS011;46196;52.970;6.954;2022-11-20T03:25:19;12.30;;;8.13;;
60352;SDS011;46196;52.970;6.954;2022-11-20T03:27:45;13.05;;;8.18;;
60352;SDS011;46196;52.970;6.954;2022-11-20T03:30:10;13.95;;;9.05;;
60352;SDS011;46196;52.970;6.954;2022-11-20T03:32:37;14.93;;;8.07;;
60352;SDS011;46196;52.970;6.954;2022-11-20T03:35:03;11.55;;;7.97;;
60352;SDS011;46196;52.970;6.954;2022-11-20T03:37:28;13.10;;;7.88;;
60352;SDS011;46196;52.970;6.954;2022-11-20T03:39:54;12.25;;;7.95;;
60352;SDS011;46196;52.970;6.954;2022-11-20T03:42:20;14.38;;;7.88;;
60352;SDS011;46196;52.970;6.954;2022-11-20T03:45:18;12.18;;;7.53;;
60352;SDS011;46196;52.970;6.954;2022-11-20T03:47:44;12.43;;;7.82;;
60352;SDS011;46196;52.970;6.954;2022-11-20T03:50:11;12.20;;;8.45;;
60352;SDS011;46196;52.970;6.954;2022-11-20T03:52:39;11.02;;;7.68;;
60352;SDS011;46196;52.970;6.954;2022-11-20T03:55:05;9.90;;;6.40;;
60352;SDS011;46196;52.970;6.954;2022-11-20T03:57:32;12.45;;;8.23;;
60352;SDS011;46196;52.970;6.954;2022-11-20T03:59:57;12.05;;;7.88;;
60352;SDS011;46196;52.970;6.954;2022-11-20T04:02:23;11.30;;;8.20;;
60352;SDS011;46196;52.970;6.954;2022-11-20T04:04:49;9.57;;;7.45;;
60352;SDS011;46196;52.970;6.954;2022-11-20T04:07:14;10.75;;;7.60;;
60352;SDS011;46196;52.970;6.954;2022-11-20T04:09:40;13.48;;;8.27;;
60352;SDS011;46196;52.970;6.954;2022-11-20T04:12:06;14.10;;;9.30;;
60352;SDS011;46196;52.970;6.954;2022-11-20T04:14:32;13.70;;;8.77;;
60352;SDS011;46196;52.970;6.954;2022-11-20T04:16:58;12.90;;;8.52;;
60352;SDS011;46196;52.970;6.954;2022-11-20T04:19:23;13.10;;;8.70;;
60352;SDS011;46196;52.970;6.954;2022-11-20T04:21:49;10.25;;;7.35;;
60352;SDS011;46196;52.970;6.954;2022-11-20T04:24:15;14.02;;;8.65;;
60352;SDS011;46196;52.970;6.954;2022-11-20T04:26:40;11.68;;;7.75;;
60352;SDS011;46196;52.970;6.954;2022-11-20T04:29:06;12.55;;;8.07;;
60352;SDS011;46196;52.970;6.954;2022-11-20T04:31:35;11.52;;;8.48;;
60352;SDS011;46196;52.970;6.954;2022-11-20T04:34:01;11.73;;;7.95;;
60352;SDS011;46196;52.970;6.954;2022-11-20T04:36:29;13.80;;;9.47;;
60352;SDS011;46196;52.970;6.954;2022-11-20T04:38:56;12.15;;;8.60;;
60352;SDS011;46196;52.970;6.954;2022-11-20T04:41:28;13.25;;;8.38;;
60352;SDS011;46196;52.970;6.954;2022-11-20T04:43:56;9.73;;;6.63;;
60352;SDS011;46196;52.970;6.954;2022-11-20T04:46:28;11.63;;;8.23;;
60352;SDS011;46196;52.970;6.954;2022-11-20T04:48:58;12.50;;;8.27;;
60352;SDS011;46196;52.970;6.954;2022-11-20T04:51:24;12.90;;;8.40;;
60352;SDS011;46196;52.970;6.954;2022-11-20T04:53:50;11.52;;;7.97;;
60352;SDS011;46196;52.970;6.954;2022-11-20T04:56:16;12.77;;;9.15;;
60352;SDS011;46196;52.970;6.954;2022-11-20T04:58:42;12.55;;;8.40;;
60352;SDS011;46196;52.970;6.954;2022-11-20T05:01:15;11.68;;;7.50;;
60352;SDS011;46196;52.970;6.954;2022-11-20T05:03:43;13.40;;;8.65;;
60352;SDS011;46196;52.970;6.954;2022-11-20T05:06:14;12.20;;;7.72;;
60352;SDS011;46196;52.970;6.954;2022-11-20T05:08:41;10.07;;;7.78;;
60352;SDS011;46196;52.970;6.954;2022-11-20T05:11:10;12.05;;;7.35;;
60352;SDS011;46196;52.970;6.954;2022-11-20T05:13:41;11.32;;;7.45;;
60352;SDS011;46196;52.970;6.954;2022-11-20T05:16:08;11.25;;;8.10;;
60352;SDS011;46196;52.970;6.954;2022-11-20T05:18:36;12.48;;;8.50;;
60352;SDS011;46196;52.970;6.954;2022-11-20T05:21:02;11.57;;;7.30;;
60352;SDS011;46196;52.970;6.954;2022-11-20T05:23:29;11.38;;;7.53;;
60352;SDS011;46196;52.970;6.954;2022-11-20T05:25:57;11.45;;;8.02;;
60352;SDS011;46196;52.970;6.954;2022-11-20T05:28:23;11.57;;;7.60;;
60352;SDS011;46196;52.970;6.954;2022-11-20T05:30:50;10.30;;;7.60;;
60352;SDS011;46196;52.970;6.954;2022-11-20T05:33:16;12.10;;;7.70;;
60352;SDS011;46196;52.970;6.954;2022-11-20T05:35:42;11.93;;;7.50;;
60352;SDS011;46196;52.970;6.954;2022-11-20T05:38:08;12.18;;;7.75;;
60352;SDS011;46196;52.970;6.954;2022-11-20T05:40:34;11.73;;;7.82;;
60352;SDS011;46196;52.970;6.954;2022-11-20T05:43:00;10.55;;;6.97;;
60352;SDS011;46196;52.970;6.954;2022-11-20T05:45:26;11.57;;;7.55;;
60352;SDS011;46196;52.970;6.954;2022-11-20T05:47:51;11.82;;;8.02;;
60352;SDS011;46196;52.970;6.954;2022-11-20T05:50:17;12.18;;;7.93;;
60352;SDS011;46196;52.970;6.954;2022-11-20T05:52:43;13.20;;;8.77;;
60352;SDS011;46196;52.970;6.954;2022-11-20T05:55:09;12.90;;;7.88;;
60352;SDS011;46196;52.970;6.954;2022-11-20T05:57:34;12.35;;;8.20;;
60352;SDS011;46196;52.970;6.954;2022-11-20T06:00:00;11.98;;;7.93;;
60352;SDS011;46196;52.970;6.954;2022-11-20T06:02:27;11.07;;;7.88;;
60352;SDS011;46196;52.970;6.954;2022-11-20T06:04:53;11.48;;;7.72;;
60352;SDS011;46196;52.970;6.954;2022-11-20T06:07:19;7.68;;;4.97;;
60352;SDS011;46196;52.970;6.954;2022-11-20T06:09:44;9.98;;;7.57;;
60352;SDS011;46196;52.970;6.954;2022-11-20T06:12:10;11.73;;;7.80;;
60352;SDS011;46196;52.970;6.954;2022-11-20T06:14:36;11.43;;;7.95;;
60352;SDS011;46196;52.970;6.954;2022-11-20T06:17:01;10.23;;;7.63;;
60352;SDS011;46196;52.970;6.954;2022-11-20T06:19:27;10.35;;;7.55;;
60352;SDS011;46196;52.970;6.954;2022-11-20T06:21:53;11.02;;;6.95;;
60352;SDS011;46196;52.970;6.954;2022-11-20T06:24:19;11.48;;;7.68;;
60352;SDS011;46196;52.970;6.954;2022-11-20T06:26:45;11.65;;;7.70;;
60352;SDS011;46196;52.970;6.954;2022-11-20T06:29:11;10.55;;;7.55;;
60352;SDS011;46196;52.970;6.954;2022-11-20T06:31:36;10.30;;;7.68;;
60352;SDS011;46196;52.970;6.954;2022-11-20T06:34:03;10.43;;;7.35;;
60352;SDS011;46196;52.970;6.954;2022-11-20T06:36:31;10.63;;;7.32;;
60352;SDS011;46196;52.970;6.954;2022-11-20T06:38:57;11.77;;;8.35;;
60352;SDS011;46196;52.970;6.954;2022-11-20T06:41:22;12.30;;;7.57;;
60352;SDS011;46196;52.970;6.954;2022-11-20T06:43:49;10.95;;;7.97;;
60352;SDS011;46196;52.970;6.954;2022-11-20T06:46:16;10.30;;;8.05;;
60352;SDS011;46196;52.970;6.954;2022-11-20T06:48:43;10.15;;;7.53;;
60352;SDS011;46196;52.970;6.954;2022-11-20T06:51:10;10.60;;;7.35;;
60352;SDS011;46196;52.970;6.954;2022-11-20T06:53:36;12.68;;;8.10;;
60352;SDS011;46196;52.970;6.954;2022-11-20T06:56:03;9.85;;;7.60;;
60352;SDS011;46196;52.970;6.954;2022-11-20T06:58:29;10.18;;;7.72;;
60352;SDS011;46196;52.970;6.954;2022-11-20T07:00:59;12.10;;;7.95;;
60352;SDS011;46196;52.970;6.954;2022-11-20T07:03:35;12.82;;;7.75;;
60352;SDS011;46196;52.970;6.954;2022-11-20T07:06:02;10.63;;;7.38;;
60352;SDS011;46196;52.970;6.954;2022-11-20T07:08:28;12.15;;;7.90;;
60352;SDS011;46196;52.970;6.954;2022-11-20T07:10:58;12.43;;;7.75;;
60352;SDS011;46196;52.970;6.954;2022-11-20T07:13:25;11.07;;;7.90;;
60352;SDS011;46196;52.970;6.954;2022-11-20T07:15:52;11.27;;;7.28;;
60352;SDS011;46196;52.970;6.954;2022-11-20T07:18:18;9.60;;;7.43;;
60352;SDS011;46196;52.970;6.954;2022-11-20T07:20:43;11.68;;;7.78;;
60352;SDS011;46196;52.970;6.954;2022-11-20T07:23:09;10.98;;;8.27;;
60352;SDS011;46196;52.970;6.954;2022-11-20T07:25:35;11.27;;;8.10;;
60352;SDS011;46196;52.970;6.954;2022-11-20T07:28:01;11.80;;;7.72;;
60352;SDS011;46196;52.970;6.954;2022-11-20T07:30:27;11.10;;;7.72;;
60352;SDS011;46196;52.970;6.954;2022-11-20T07:32:53;9.48;;;7.88;;
60352;SDS011;46196;52.970;6.954;2022-11-20T07:35:20;12.60;;;9.07;;
60352;SDS011;46196;52.970;6.954;2022-11-20T07:37:47;10.02;;;7.07;;
60352;SDS011;46196;52.970;6.954;2022-11-20T07:40:13;10.90;;;7.40;;
60352;SDS011;46196;52.970;6.954;2022-11-20T07:45:16;12.07;;;8.27;;
60352;SDS011;46196;52.970;6.954;2022-11-20T07:47:43;11.68;;;7.63;;
60352;SDS011;46196;52.970;6.954;2022-11-20T07:50:09;11.30;;;8.15;;
60352;SDS011;46196;52.970;6.954;2022-11-20T07:52:35;10.00;;;6.97;;
60352;SDS011;46196;52.970;6.954;2022-11-20T07:55:01;12.30;;;7.45;;
60352;SDS011;46196;52.970;6.954;2022-11-20T07:57:27;13.85;;;7.95;;
60352;SDS011;46196;52.970;6.954;2022-11-20T07:59:53;11.35;;;8.25;;
60352;SDS011;46196;52.970;6.954;2022-11-20T08:02:18;11.55;;;7.68;;
60352;SDS011;46196;52.970;6.954;2022-11-20T08:04:44;10.68;;;7.00;;
60352;SDS011;46196;52.970;6.954;2022-11-20T08:07:10;11.45;;;7.78;;
60352;SDS011;46196;52.970;6.954;2022-11-20T08:09:35;12.18;;;7.85;;
60352;SDS011;46196;52.970;6.954;2022-11-20T08:12:01;11.77;;;7.55;;
60352;SDS011;46196;52.970;6.954;2022-11-20T08:14:45;10.85;;;7.80;;
60352;SDS011;46196;52.970;6.954;2022-11-20T08:17:11;11.95;;;8.18;;
60352;SDS011;46196;52.970;6.954;2022-11-20T08:19:37;9.95;;;7.53;;
60352;SDS011;46196;52.970;6.954;2022-11-20T08:22:03;11.18;;;7.72;;
60352;SDS011;46196;52.970;6.954;2022-11-20T08:24:29;9.57;;;7.05;;
60352;SDS011;46196;52.970;6.954;2022-11-20T08:26:56;11.57;;;7.85;;
60352;SDS011;46196;52.970;6.954;2022-11-20T08:29:23;9.98;;;6.95;;
60352;SDS011;46196;52.970;6.954;2022-11-20T08:31:48;12.98;;;8.13;;
60352;SDS011;46196;52.970;6.954;2022-11-20T08:34:14;10.70;;;7.22;;
60352;SDS011;46196;52.970;6.954;2022-11-20T08:36:40;10.63;;;6.80;;
60352;SDS011;46196;52.970;6.954;2022-11-20T08:39:06;10.73;;;7.55;;
60352;SDS011;46196;52.970;6.954;2022-11-20T08:41:32;10.75;;;7.25;;
60352;SDS011;46196;52.970;6.954;2022-11-20T08:43:59;11.48;;;7.60;;
60352;SDS011;46196;52.970;6.954;2022-11-20T08:46:27;11.60;;;7.85;;
60352;SDS011;46196;52.970;6.954;2022-11-20T08:49:08;11.77;;;8.13;;
60352;SDS011;46196;52.970;6.954;2022-11-20T08:51:36;9.05;;;6.70;;
60352;SDS011;46196;52.970;6.954;2022-11-20T08:54:02;11.57;;;7.53;;
60352;SDS011;46196;52.970;6.954;2022-11-20T08:56:28;9.95;;;6.32;;
60352;SDS011;46196;52.970;6.954;2022-11-20T08:58:55;9.80;;;6.63;;
60352;SDS011;46196;52.970;6.954;2022-11-20T09:01:21;12.07;;;6.97;;
60352;SDS011;46196;52.970;6.954;2022-11-20T09:03:48;9.80;;;6.95;;
60352;SDS011;46196;52.970;6.954;2022-11-20T09:06:14;9.65;;;6.78;;
60352;SDS011;46196;52.970;6.954;2022-11-20T09:08:40;12.43;;;7.10;;
60352;SDS011;46196;52.970;6.954;2022-11-20T09:11:07;9.82;;;7.65;;
60352;SDS011;46196;52.970;6.954;2022-11-20T09:13:34;11.77;;;7.68;;
60352;SDS011;46196;52.970;6.954;2022-11-20T09:16:04;11.40;;;7.20;;
60352;SDS011;46196;52.970;6.954;2022-11-20T09:18:32;9.18;;;6.38;;
60352;SDS011;46196;52.970;6.954;2022-11-20T09:21:09;10.30;;;7.20;;
60352;SDS011;46196;52.970;6.954;2022-11-20T09:23:36;9.30;;;6.57;;
60352;SDS011;46196;52.970;6.954;2022-11-20T09:26:03;10.93;;;7.57;;
60352;SDS011;46196;52.970;6.954;2022-11-20T09:28:30;10.00;;;7.30;;
60352;SDS011;46196;52.970;6.954;2022-11-20T09:30:57;9.30;;;6.30;;
60352;SDS011;46196;52.970;6.954;2022-11-20T09:33:23;7.93;;;5.40;;
60352;SDS011;46196;52.970;6.954;2022-11-20T09:35:49;9.90;;;6.80;;
60352;SDS011;46196;52.970;6.954;2022-11-20T09:38:14;9.73;;;7.18;;
60352;SDS011;46196;52.970;6.954;2022-11-20T09:40:43;9.65;;;6.47;;
60352;SDS011;46196;52.970;6.954;2022-11-20T09:46:13;10.13;;;6.95;;
60352;SDS011;46196;52.970;6.954;2022-11-20T09:51:31;9.77;;;6.63;;
60352;SDS011;46196;52.970;6.954;2022-11-20T09:54:17;8.85;;;6.60;;
60352;SDS011;46196;52.970;6.954;2022-11-20T09:57:00;9.57;;;6.30;;
60352;SDS011;46196;52.970;6.954;2022-11-20T10:02:13;10.18;;;6.82;;
60352;SDS011;46196;52.970;6.954;2022-11-20T10:04:42;9.60;;;5.63;;
60352;SDS011;46196;52.970;6.954;2022-11-20T10:07:23;9.85;;;5.90;;
60352;SDS011;46196;52.970;6.954;2022-11-20T10:09:57;9.45;;;6.22;;
60352;SDS011;46196;52.970;6.954;2022-11-20T10:12:25;9.30;;;6.28;;
60352;SDS011;46196;52.970;6.954;2022-11-20T10:18:23;9.27;;;6.53;;
60352;SDS011;46196;52.970;6.954;2022-11-20T10:23:39;12.85;;;7.35;;
60352;SDS011;46196;52.970;6.954;2022-11-20T10:31:33;9.02;;;6.55;;
60352;SDS011;46196;52.970;6.954;2022-11-20T10:34:12;9.85;;;6.70;;
60352;SDS011;46196;52.970;6.954;2022-11-20T10:37:11;9.90;;;7.05;;
60352;SDS011;46196;52.970;6.954;2022-11-20T10:42:14;9.23;;;6.47;;
60352;SDS011;46196;52.970;6.954;2022-11-20T10:44:47;9.88;;;7.10;;
60352;SDS011;46196;52.970;6.954;2022-11-20T10:47:27;8.82;;;6.57;;
60352;SDS011;46196;52.970;6.954;2022-11-20T10:49:56;16.02;;;12.02;;
60352;SDS011;46196;52.970;6.954;2022-11-20T11:00:35;8.82;;;6.28;;
60352;SDS011;46196;52.970;6.954;2022-11-20T11:03:01;9.52;;;6.50;;
60352;SDS011;46196;52.970;6.954;2022-11-20T11:08:14;10.63;;;7.13;;
60352;SDS011;46196;52.970;6.954;2022-11-20T11:15:47;9.50;;;7.38;;
60352;SDS011;46196;52.970;6.954;2022-11-20T11:18:22;10.20;;;7.20;;
60352;SDS011;46196;52.970;6.954;2022-11-20T11:20:50;9.18;;;6.53;;
60352;SDS011;46196;52.970;6.954;2022-11-20T11:26:00;9.70;;;6.47;;
60352;SDS011;46196;52.970;6.954;2022-11-20T11:28:27;9.50;;;6.70;;
60352;SDS011;46196;52.970;6.954;2022-11-20T11:30:53;9.50;;;6.47;;
60352;SDS011;46196;52.970;6.954;2022-11-20T11:33:20;9.18;;;6.55;;
60352;SDS011;46196;52.970;6.954;2022-11-20T11:35:55;7.90;;;5.90;;
60352;SDS011;46196;52.970;6.954;2022-11-20T11:38:39;8.82;;;6.18;;
60352;SDS011;46196;52.970;6.954;2022-11-20T11:41:08;13.95;;;9.98;;
60352;SDS011;46196;52.970;6.954;2022-11-20T11:43:39;10.35;;;7.28;;
60352;SDS011;46196;52.970;6.954;2022-11-20T11:46:35;8.77;;;6.28;;
60352;SDS011;46196;52.970;6.954;2022-11-20T11:51:36;8.43;;;5.95;;
60352;SDS011;46196;52.970;6.954;2022-11-20T11:54:26;7.75;;;5.78;;
60352;SDS011;46196;52.970;6.954;2022-11-20T11:57:00;7.63;;;5.40;;
60352;SDS011;46196;52.970;6.954;2022-11-20T11:59:39;8.13;;;5.88;;
60352;SDS011;46196;52.970;6.954;2022-11-20T12:02:15;10.20;;;7.15;;
60352;SDS011;46196;52.970;6.954;2022-11-20T12:04:57;8.10;;;5.82;;
60352;SDS011;46196;52.970;6.954;2022-11-20T12:10:17;8.90;;;5.85;;
60352;SDS011;46196;52.970;6.954;2022-11-20T12:12:44;7.40;;;5.90;;
60352;SDS011;46196;52.970;6.954;2022-11-20T12:15:20;7.13;;;5.18;;
60352;SDS011;46196;52.970;6.954;2022-11-20T12:17:51;7.50;;;5.05;;
60352;SDS011;46196;52.970;6.954;2022-11-20T12:20:17;8.52;;;5.90;;
60352;SDS011;46196;52.970;6.954;2022-11-20T12:22:48;8.75;;;5.68;;
60352;SDS011;46196;52.970;6.954;2022-11-20T12:25:31;8.75;;;6.03;;
60352;SDS011;46196;52.970;6.954;2022-11-20T12:28:10;8.88;;;6.22;;
60352;SDS011;46196;52.970;6.954;2022-11-20T12:39:55;8.88;;;6.13;;
60352;SDS011;46196;52.970;6.954;2022-11-20T12:48:36;9.48;;;7.32;;
60352;SDS011;46196;52.970;6.954;2022-11-20T13:01:51;15.38;;;9.77;;
60352;SDS011;46196;52.970;6.954;2022-11-20T13:07:12;10.80;;;7.20;;
60352;SDS011;46196;52.970;6.954;2022-11-20T13:09:46;9.63;;;7.05;;
60352;SDS011;46196;52.970;6.954;2022-11-20T13:15:02;10.50;;;6.18;;
60352;SDS011;46196;52.970;6.954;2022-11-20T13:20:16;12.52;;;9.07;;
60352;SDS011;46196;52.970;6.954;2022-11-20T13:22:49;10.23;;;7.75;;
60352;SDS011;46196;52.970;6.954;2022-11-20T13:27:54;8.80;;;6.40;;
60352;SDS011;46196;52.970;6.954;2022-11-20T13:30:23;11.15;;;6.65;;
60352;SDS011;46196;52.970;6.954;2022-11-20T13:32:54;8.10;;;6.15;;
60352;SDS011;46196;52.970;6.954;2022-11-20T13:35:31;10.10;;;7.50;;
60352;SDS011;46196;52.970;6.954;2022-11-20T13:37:59;8.75;;;6.35;;
60352;SDS011;46196;52.970;6.954;2022-11-20T13:40:37;8.90;;;6.40;;
60352;SDS011;46196;52.970;6.954;2022-11-20T13:46:00;10.13;;;7.93;;
60352;SDS011;46196;52.970;6.954;2022-11-20T13:48:49;10.32;;;7.97;;
60352;SDS011;46196;52.970;6.954;2022-11-20T13:54:02;12.60;;;8.52;;
60352;SDS011;46196;52.970;6.954;2022-11-20T13:59:34;12.18;;;9.00;;
60352;SDS011;46196;52.970;6.954;2022-11-20T14:02:13;13.77;;;12.38;;
60352;SDS011;46196;52.970;6.954;2022-11-20T14:04:42;10.27;;;8.82;;
60352;SDS011;46196;52.970;6.954;2022-11-20T14:07:10;12.20;;;8.00;;
60352;SDS011;46196;52.970;6.954;2022-11-20T14:09:37;8.98;;;7.72;;
60352;SDS011;46196;52.970;6.954;2022-11-20T14:12:03;10.90;;;8.32;;
60352;SDS011;46196;52.970;6.954;2022-11-20T14:14:46;10.68;;;7.95;;
60352;SDS011;46196;52.970;6.954;2022-11-20T14:19:58;12.40;;;7.90;;
60352;SDS011;46196;52.970;6.954;2022-11-20T14:22:52;12.32;;;8.65;;
60352;SDS011;46196;52.970;6.954;2022-11-20T14:25:22;12.30;;;8.07;;
60352;SDS011;46196;52.970;6.954;2022-11-20T14:27:56;12.07;;;7.60;;
60352;SDS011;46196;52.970;6.954;2022-11-20T14:30:38;10.77;;;7.18;;
60352;SDS011;46196;52.970;6.954;2022-11-20T14:33:09;9.48;;;6.93;;
60352;SDS011;46196;52.970;6.954;2022-11-20T14:35:37;10.45;;;7.07;;
60352;SDS011;46196;52.970;6.954;2022-11-20T14:38:10;9.80;;;7.13;;
60352;SDS011;46196;52.970;6.954;2022-11-20T14:40:39;9.48;;;6.65;;
60352;SDS011;46196;52.970;6.954;2022-11-20T14:45:44;9.57;;;6.40;;
60352;SDS011;46196;52.970;6.954;2022-11-20T14:50:40;9.45;;;6.95;;
60352;SDS011;46196;52.970;6.954;2022-11-20T14:53:06;7.95;;;6.03;;
60352;SDS011;46196;52.970;6.954;2022-11-20T14:55:32;9.25;;;6.85;;
60352;SDS011;46196;52.970;6.954;2022-11-20T14:58:04;10.25;;;6.47;;
60352;SDS011;46196;52.970;6.954;2022-11-20T15:00:32;8.05;;;6.22;;
60352;SDS011;46196;52.970;6.954;2022-11-20T15:02:59;9.50;;;6.88;;
60352;SDS011;46196;52.970;6.954;2022-11-20T15:05:26;10.93;;;7.35;;
60352;SDS011;46196;52.970;6.954;2022-11-20T15:08:10;11.27;;;7.65;;
60352;SDS011;46196;52.970;6.954;2022-11-20T15:10:37;9.48;;;6.97;;
60352;SDS011;46196;52.970;6.954;2022-11-20T15:16:03;9.68;;;7.35;;
60352;SDS011;46196;52.970;6.954;2022-11-20T15:18:39;10.95;;;7.10;;
60352;SDS011;46196;52.970;6.954;2022-11-20T15:21:13;10.10;;;6.72;;
60352;SDS011;46196;52.970;6.954;2022-11-20T15:23:40;9.93;;;7.22;;
60352;SDS011;46196;52.970;6.954;2022-11-20T15:26:07;10.05;;;7.50;;
60352;SDS011;46196;52.970;6.954;2022-11-20T15:28:37;10.57;;;7.85;;
60352;SDS011;46196;52.970;6.954;2022-11-20T15:31:06;11.10;;;6.75;;
60352;SDS011;46196;52.970;6.954;2022-11-20T15:33:36;14.45;;;7.75;;
60352;SDS011;46196;52.970;6.954;2022-11-20T15:36:02;11.93;;;7.82;;
60352;SDS011;46196;52.970;6.954;2022-11-20T15:38:28;10.68;;;7.22;;
60352;SDS011;46196;52.970;6.954;2022-11-20T15:40:53;10.88;;;7.68;;
60352;SDS011;46196;52.970;6.954;2022-11-20T15:43:19;10.75;;;8.13;;
60352;SDS011;46196;52.970;6.954;2022-11-20T15:45:46;10.77;;;8.18;;
60352;SDS011;46196;52.970;6.954;2022-11-20T15:48:20;14.18;;;8.48;;
60352;SDS011;46196;52.970;6.954;2022-11-20T15:50:54;14.23;;;8.60;;
60352;SDS011;46196;52.970;6.954;2022-11-20T15:53:23;11.98;;;8.50;;
60352;SDS011;46196;52.970;6.954;2022-11-20T15:55:49;13.10;;;8.18;;
60352;SDS011;46196;52.970;6.954;2022-11-20T15:58:15;10.35;;;7.47;;
60352;SDS011;46196;52.970;6.954;2022-11-20T16:00:44;10.45;;;7.80;;
60352;SDS011;46196;52.970;6.954;2022-11-20T16:03:10;11.73;;;7.10;;
60352;SDS011;46196;52.970;6.954;2022-11-20T16:05:37;10.32;;;7.20;;
60352;SDS011;46196;52.970;6.954;2022-11-20T16:08:03;10.85;;;6.72;;
60352;SDS011;46196;52.970;6.954;2022-11-20T16:10:28;10.82;;;7.93;;
60352;SDS011;46196;52.970;6.954;2022-11-20T16:12:54;11.15;;;7.40;;
60352;SDS011;46196;52.970;6.954;2022-11-20T16:15:38;11.20;;;7.47;;
60352;SDS011;46196;52.970;6.954;2022-11-20T16:18:11;10.30;;;7.28;;
60352;SDS011;46196;52.970;6.954;2022-11-20T16:20:38;10.63;;;7.43;;
60352;SDS011;46196;52.970;6.954;2022-11-20T16:23:04;9.63;;;7.10;;
60352;SDS011;46196;52.970;6.954;2022-11-20T16:25:31;12.52;;;7.65;;
60352;SDS011;46196;52.970;6.954;2022-11-20T16:27:57;11.07;;;7.43;;
60352;SDS011;46196;52.970;6.954;2022-11-20T16:30:23;11.27;;;7.63;;
60352;SDS011;46196;52.970;6.954;2022-11-20T16:32:49;10.68;;;7.47;;
60352;SDS011;46196;52.970;6.954;2022-11-20T16:35:15;8.45;;;6.18;;
60352;SDS011;46196;52.970;6.954;2022-11-20T16:37:41;12.43;;;7.82;;
60352;SDS011;46196;52.970;6.954;2022-11-20T16:40:08;11.65;;;7.93;;